createdAt,value
2022-09-06T00:01:53.105Z,4.25
2022-09-06T00:04:20.665Z,2.25
2022-09-06T00:06:48.240Z,2.33
2022-09-06T00:09:17.139Z,2.53
2022-09-06T00:11:44.726Z,2.70
2022-09-06T00:14:12.219Z,2.80
2022-09-06T00:16:40.669Z,3.20
2022-09-06T00:19:08.219Z,2.70
2022-09-06T00:21:35.971Z,2.63
2022-09-06T00:24:03.997Z,3.00
2022-09-06T00:26:32.867Z,2.35
2022-09-06T00:29:00.381Z,3.65
2022-09-06T00:31:28.748Z,2.58
2022-09-06T00:33:56.287Z,2.42
2022-09-06T00:36:23.856Z,2.53
2022-09-06T00:38:51.355Z,5.82
2022-09-06T00:41:19.030Z,4.15
2022-09-06T00:43:47.987Z,2.53
2022-09-06T00:46:16.699Z,2.97
2022-09-06T00:48:45.092Z,3.53
2022-09-06T00:51:13.890Z,2.45
2022-09-06T00:53:41.578Z,2.60
2022-09-06T00:56:09.567Z,2.58
2022-09-06T00:58:37.469Z,2.40
2022-09-06T01:01:06.812Z,3.72
2022-09-06T01:03:34.821Z,2.60
2022-09-06T01:06:06.766Z,4.30
2022-09-06T01:08:41.875Z,3.13
2022-09-06T01:11:20.447Z,3.58
2022-09-06T01:13:51.296Z,3.55
2022-09-06T01:16:24.064Z,3.33
2022-09-06T01:19:00.539Z,5.05
2022-09-06T01:21:39.661Z,4.15
2022-09-06T01:24:22.050Z,4.85
2022-09-06T01:27:00.767Z,3.10
2022-09-06T01:29:33.728Z,3.00
2022-09-06T01:32:04.363Z,2.72
2022-09-06T01:34:36.221Z,3.33
2022-09-06T01:37:10.223Z,4.53
2022-09-06T01:39:39.369Z,2.58
2022-09-06T01:42:09.140Z,3.90
2022-09-06T01:44:39.051Z,3.03
2022-09-06T01:47:12.032Z,3.90
2022-09-06T01:49:43.522Z,3.05
2022-09-06T01:52:14.564Z,3.35
2022-09-06T01:54:57.327Z,3.28
2022-09-06T01:57:33.079Z,4.45
2022-09-06T02:00:07.805Z,3.85
2022-09-06T02:02:39.453Z,3.58
2022-09-06T02:05:09.680Z,3.88
2022-09-06T02:07:37.925Z,4.68
2022-09-06T02:10:08.318Z,4.43
2022-09-06T02:12:36.871Z,3.30
2022-09-06T02:15:07.304Z,4.22
2022-09-06T02:17:39.631Z,4.43
2022-09-06T02:20:10.611Z,2.88
2022-09-06T02:22:40.590Z,4.40
2022-09-06T02:25:09.006Z,3.33
2022-09-06T02:27:37.690Z,4.50
2022-09-06T02:30:05.462Z,4.82
2022-09-06T02:32:39.227Z,4.93
2022-09-06T02:35:08.765Z,4.45
2022-09-06T02:37:36.730Z,5.18
2022-09-06T02:40:04.774Z,4.50
2022-09-06T02:42:32.418Z,3.80
2022-09-06T02:44:59.950Z,4.43
2022-09-06T02:47:29.558Z,4.40
2022-09-06T02:49:58.445Z,3.92
2022-09-06T02:52:25.947Z,4.90
2022-09-06T02:54:53.426Z,3.47
2022-09-06T02:57:20.923Z,4.28
2022-09-06T02:59:48.436Z,4.38
2022-09-06T03:02:17.053Z,4.82
2022-09-06T03:04:44.671Z,5.43
2022-09-06T03:07:13.550Z,4.95
2022-09-06T03:09:41.482Z,4.93
2022-09-06T03:12:09.022Z,4.95
2022-09-06T03:14:37.124Z,4.80
2022-09-06T03:17:04.892Z,4.47
2022-09-06T03:19:32.460Z,5.17
2022-09-06T03:21:59.959Z,4.40
2022-09-06T03:24:28.839Z,5.32
2022-09-06T03:26:56.357Z,5.40
2022-09-06T03:29:23.871Z,4.80
2022-09-06T03:31:51.357Z,5.20
2022-09-06T03:34:18.894Z,5.60
2022-09-06T03:36:46.388Z,6.43
2022-09-06T03:39:13.862Z,5.63
2022-09-06T03:41:42.695Z,5.27
2022-09-06T03:44:10.251Z,6.47
2022-09-06T03:46:37.771Z,6.60
2022-09-06T03:49:05.351Z,5.77
2022-09-06T03:51:32.871Z,6.57
2022-09-06T03:54:00.330Z,6.07
2022-09-06T03:56:27.847Z,6.57
2022-09-06T03:58:56.679Z,6.47
2022-09-06T04:01:26.327Z,5.60
2022-09-06T04:03:53.999Z,6.07
2022-09-06T04:06:21.571Z,7.05
2022-09-06T04:08:49.350Z,5.85
2022-09-06T04:11:17.549Z,6.43
2022-09-06T04:13:45.244Z,6.07
2022-09-06T04:16:14.189Z,6.60
2022-09-06T04:18:41.823Z,8.35
2022-09-06T04:21:09.335Z,6.10
2022-09-06T04:23:39.937Z,6.60
2022-09-06T04:26:07.891Z,6.80
2022-09-06T04:28:35.374Z,7.30
2022-09-06T04:31:05.011Z,7.17
2022-09-06T04:33:34.935Z,7.60
2022-09-06T04:36:03.485Z,7.20
2022-09-06T04:38:31.558Z,7.77
2022-09-06T04:40:59.029Z,7.63
2022-09-06T04:43:26.650Z,11.40
2022-09-06T04:45:54.198Z,10.00
2022-09-06T04:48:21.836Z,7.93
2022-09-06T04:50:50.716Z,9.43
2022-09-06T04:53:18.339Z,9.10
2022-09-06T04:55:46.237Z,8.30
2022-09-06T04:58:13.936Z,8.83
2022-09-06T05:00:44.728Z,8.60
2022-09-06T05:03:12.545Z,9.47
2022-09-06T05:05:40.230Z,9.17
2022-09-06T05:13:52.410Z,9.57
2022-09-06T05:16:19.962Z,8.23
2022-09-06T05:18:47.527Z,8.67
2022-09-06T05:21:15.855Z,8.73
2022-09-06T05:23:45.056Z,8.67
2022-09-06T05:26:12.598Z,9.90
2022-09-06T05:28:40.157Z,8.07
2022-09-06T05:31:08.329Z,9.57
2022-09-06T05:33:35.912Z,10.00
2022-09-06T05:36:03.874Z,9.65
2022-09-06T05:38:31.559Z,9.30
2022-09-06T05:41:00.645Z,9.82
2022-09-06T05:43:28.193Z,9.50
2022-09-06T05:45:55.840Z,10.25
2022-09-06T05:48:23.491Z,14.57
2022-09-06T05:51:00.546Z,15.60
2022-09-06T05:53:28.112Z,10.48
2022-09-06T05:55:55.615Z,10.32
2022-09-06T05:58:24.563Z,9.73
2022-09-06T06:00:52.083Z,10.85
2022-09-06T06:03:19.629Z,10.05
2022-09-06T06:05:47.605Z,10.23
2022-09-06T06:08:15.109Z,10.65
2022-09-06T06:10:42.641Z,10.20
2022-09-06T06:13:10.159Z,10.40
2022-09-06T06:15:38.987Z,11.80
2022-09-06T06:18:06.554Z,10.18
2022-09-06T06:20:34.094Z,10.43
2022-09-06T06:23:01.549Z,10.68
2022-09-06T06:25:29.079Z,10.20
2022-09-06T06:27:56.564Z,10.23
2022-09-06T06:30:24.015Z,9.55
2022-09-06T06:32:52.837Z,10.25
2022-09-06T06:35:20.320Z,10.30
2022-09-06T06:37:47.801Z,10.40
2022-09-06T06:40:15.383Z,9.57
2022-09-06T06:42:42.849Z,9.48
2022-09-06T06:45:10.834Z,9.10
2022-09-06T06:47:38.308Z,9.45
2022-09-06T06:50:07.721Z,11.52
2022-09-06T06:52:35.164Z,9.00
2022-09-06T06:55:02.731Z,9.27
2022-09-06T06:57:30.194Z,8.15
2022-09-06T06:59:58.324Z,9.70
2022-09-06T07:02:25.853Z,8.05
2022-09-06T07:04:53.363Z,7.90
2022-09-06T07:12:44.395Z,6.70
2022-09-06T07:15:11.984Z,6.70
2022-09-06T07:17:39.729Z,5.80
2022-09-06T07:20:15.488Z,6.13
2022-09-06T07:22:44.959Z,5.30
2022-09-06T07:25:14.502Z,5.40
2022-09-06T07:30:14.127Z,5.20
2022-09-06T07:32:41.634Z,6.47
2022-09-06T07:35:09.635Z,6.07
2022-09-06T07:37:37.129Z,5.82
2022-09-06T07:40:06.389Z,5.05
2022-09-06T07:42:36.226Z,5.57
2022-09-06T07:45:04.516Z,5.13
2022-09-06T07:53:08.331Z,6.15
2022-09-06T07:55:39.921Z,6.53
2022-09-06T07:58:07.400Z,5.97
2022-09-06T08:00:34.903Z,7.55
2022-09-06T08:03:02.467Z,7.60
2022-09-06T08:11:07.568Z,4.97
2022-09-06T08:13:35.306Z,5.90
2022-09-06T08:16:03.441Z,5.22
2022-09-06T08:18:30.986Z,9.57
2022-09-06T08:21:10.215Z,6.55
2022-09-06T08:23:42.604Z,6.32
2022-09-06T08:26:11.925Z,6.10
2022-09-06T08:28:39.387Z,6.07
2022-09-06T08:31:07.822Z,5.40
2022-09-06T08:33:35.464Z,6.07
2022-09-06T08:36:03.111Z,7.55
2022-09-06T08:38:30.623Z,7.28
2022-09-06T08:41:07.858Z,6.30
2022-09-06T08:43:37.099Z,5.35
2022-09-06T08:46:05.420Z,7.35
2022-09-06T08:48:34.040Z,4.90
2022-09-06T08:51:06.342Z,4.50
2022-09-06T08:53:37.999Z,3.85
2022-09-06T08:56:11.378Z,4.63
2022-09-06T08:58:46.594Z,3.92
2022-09-06T09:01:16.920Z,4.25
2022-09-06T09:03:44.871Z,4.18
2022-09-06T09:06:12.522Z,5.63
2022-09-06T09:08:43.041Z,4.68
2022-09-06T09:11:12.511Z,5.47
2022-09-06T09:13:48.319Z,5.30
2022-09-06T09:16:16.310Z,4.38
2022-09-06T09:18:45.034Z,4.30
2022-09-06T09:21:12.719Z,5.10
2022-09-06T09:23:40.336Z,4.50
2022-09-06T09:26:10.873Z,4.47
2022-09-06T09:28:38.678Z,4.65
2022-09-06T09:31:07.885Z,4.32
2022-09-06T09:33:38.761Z,7.53
2022-09-06T09:36:08.213Z,4.70
2022-09-06T09:38:41.172Z,6.25
2022-09-06T09:41:09.211Z,7.63
2022-09-06T09:43:38.034Z,4.40
2022-09-06T09:46:15.017Z,3.88
2022-09-06T09:48:44.425Z,5.25
2022-09-06T09:51:27.131Z,3.85
2022-09-06T09:53:56.393Z,3.42
2022-09-06T09:56:27.944Z,4.07
2022-09-06T09:58:56.996Z,4.90
2022-09-06T10:01:27.816Z,5.50
2022-09-06T10:09:38.162Z,4.03
2022-09-06T10:12:05.941Z,4.07
2022-09-06T10:14:34.446Z,4.78
2022-09-06T10:17:03.275Z,7.22
2022-09-06T10:19:37.962Z,4.00
2022-09-06T10:22:12.667Z,3.58
2022-09-06T10:24:46.777Z,3.38
2022-09-06T10:27:15.902Z,3.20
2022-09-06T10:29:47.896Z,3.83
2022-09-06T10:32:30.932Z,3.13
2022-09-06T10:35:04.742Z,4.43
2022-09-06T10:37:41.570Z,3.45
2022-09-06T10:40:10.282Z,2.90
2022-09-06T10:42:41.816Z,2.33
2022-09-06T10:45:17.875Z,2.30
2022-09-06T10:47:54.450Z,2.65
2022-09-06T10:50:22.835Z,2.08
2022-09-06T10:52:51.936Z,2.20
2022-09-06T10:55:20.305Z,2.10
2022-09-06T11:00:40.219Z,3.10
2022-09-06T11:06:04.643Z,3.20
2022-09-06T11:08:54.611Z,2.08
2022-09-06T11:11:23.844Z,1.55
2022-09-06T11:13:51.365Z,1.73
2022-09-06T11:16:21.814Z,1.65
2022-09-06T11:18:53.660Z,1.42
2022-09-06T11:21:36.386Z,2.45
2022-09-06T11:24:11.161Z,1.67
2022-09-06T11:26:43.586Z,1.58
2022-09-06T11:29:17.388Z,1.40
2022-09-06T11:34:52.708Z,2.55
2022-09-06T11:37:25.627Z,1.02
2022-09-06T11:43:11.788Z,1.42
2022-09-06T11:45:41.532Z,1.13
2022-09-06T11:48:39.240Z,2.15
2022-09-06T11:51:10.864Z,2.08
2022-09-06T11:53:53.548Z,1.08
2022-09-06T11:56:26.963Z,1.42
2022-09-06T11:58:56.362Z,1.05
2022-09-06T12:01:40.825Z,1.70
2022-09-06T12:04:10.551Z,2.63
2022-09-06T12:06:41.213Z,2.17
2022-09-06T12:09:28.630Z,1.10
2022-09-06T12:11:56.618Z,0.95
2022-09-06T12:14:46.816Z,1.17
2022-09-06T12:17:23.068Z,1.80
2022-09-06T12:19:51.807Z,1.63
2022-09-06T12:22:40.235Z,1.33
2022-09-06T12:25:16.956Z,1.55
2022-09-06T12:27:53.362Z,0.98
2022-09-06T12:30:31.923Z,1.05
2022-09-06T12:32:59.705Z,1.20
2022-09-06T12:38:24.043Z,2.47
2022-09-06T12:40:58.337Z,5.38
2022-09-06T12:43:26.282Z,2.55
2022-09-06T12:45:53.928Z,3.38
2022-09-06T12:48:29.124Z,1.35
2022-09-06T12:51:03.529Z,1.83
2022-09-06T12:53:31.685Z,1.40
2022-09-06T12:56:08.209Z,1.00
2022-09-06T12:58:36.181Z,1.77
2022-09-06T13:01:08.216Z,1.90
2022-09-06T13:03:38.147Z,1.55
2022-09-06T13:06:07.032Z,1.10
2022-09-06T13:08:35.612Z,1.45
2022-09-06T13:11:04.717Z,1.20
2022-09-06T13:13:33.625Z,0.82
2022-09-06T13:16:01.183Z,2.25
2022-09-06T13:18:33.510Z,0.98
2022-09-06T13:21:02.462Z,1.10
2022-09-06T13:23:30.472Z,1.60
2022-09-06T13:25:58.248Z,1.10
2022-09-06T13:28:26.565Z,1.27
2022-09-06T13:31:06.329Z,1.15
2022-09-06T13:33:33.950Z,1.65
2022-09-06T13:36:09.238Z,2.67
2022-09-06T13:38:40.480Z,1.08
2022-09-06T13:41:12.791Z,1.58
2022-09-06T13:43:44.972Z,1.02
2022-09-06T13:46:14.099Z,1.77
2022-09-06T13:48:44.207Z,1.67
2022-09-06T13:51:12.303Z,1.75
2022-09-06T13:53:39.838Z,2.58
2022-09-06T13:56:08.896Z,2.33
2022-09-06T13:58:36.927Z,1.25
2022-09-06T14:01:08.463Z,1.30
2022-09-06T14:03:39.152Z,1.88
2022-09-06T14:06:08.200Z,2.22
2022-09-06T14:08:56.081Z,1.30
2022-09-06T14:11:24.209Z,1.30
2022-09-06T14:13:51.879Z,1.65
2022-09-06T14:16:19.578Z,1.33
2022-09-06T14:18:48.781Z,1.15
2022-09-06T14:21:16.576Z,3.05
2022-09-06T14:23:44.361Z,1.65
2022-09-06T14:26:13.432Z,1.75
2022-09-06T14:28:40.916Z,2.45
2022-09-06T14:31:12.380Z,1.40
2022-09-06T14:33:40.065Z,3.08
2022-09-06T14:36:10.493Z,1.17
2022-09-06T14:38:38.858Z,3.00
2022-09-06T14:41:07.344Z,1.20
2022-09-06T14:43:35.484Z,1.80
2022-09-06T14:46:04.287Z,1.48
2022-09-06T14:48:32.169Z,0.98
2022-09-06T14:51:02.397Z,1.30
2022-09-06T14:53:40.204Z,2.30
2022-09-06T14:56:09.060Z,1.10
2022-09-06T14:58:37.369Z,1.65
2022-09-06T15:01:13.059Z,1.63
2022-09-06T15:03:41.153Z,1.38
2022-09-06T15:06:09.349Z,1.30
2022-09-06T15:08:38.864Z,1.42
2022-09-06T15:11:08.091Z,1.70
2022-09-06T15:13:36.928Z,3.10
2022-09-06T15:16:04.640Z,2.22
2022-09-06T15:18:32.836Z,1.55
2022-09-06T15:21:08.819Z,0.98
2022-09-06T15:23:36.782Z,1.90
2022-09-06T15:26:07.633Z,2.67
2022-09-06T15:28:35.767Z,1.95
2022-09-06T15:31:03.571Z,1.65
2022-09-06T15:33:31.339Z,1.20
2022-09-06T15:36:00.557Z,1.25
2022-09-06T15:38:28.118Z,3.88
2022-09-06T15:41:07.909Z,2.88
2022-09-06T15:43:37.844Z,2.40
2022-09-06T15:46:05.562Z,1.95
2022-09-06T15:48:40.773Z,1.90
2022-09-06T15:51:08.686Z,1.42
2022-09-06T15:53:36.339Z,2.63
2022-09-06T15:56:04.593Z,2.28
2022-09-06T15:58:32.449Z,1.02
2022-09-06T16:01:06.069Z,1.23
2022-09-06T16:03:36.074Z,1.60
2022-09-06T16:08:53.664Z,1.60
2022-09-06T16:11:21.228Z,1.38
2022-09-06T16:13:49.759Z,1.40
2022-09-06T16:16:18.837Z,1.65
2022-09-06T16:18:47.865Z,1.45
2022-09-06T16:21:17.895Z,2.00
2022-09-06T16:23:49.308Z,2.15
2022-09-06T16:26:21.259Z,1.50
2022-09-06T16:28:49.777Z,1.98
2022-09-06T16:31:19.308Z,3.63
2022-09-06T16:33:48.846Z,4.30
2022-09-06T16:36:17.145Z,2.78
2022-09-06T16:38:44.718Z,0.85
2022-09-06T16:41:14.409Z,2.72
2022-09-06T16:43:42.254Z,1.98
2022-09-06T16:46:10.383Z,1.73
2022-09-06T16:48:40.582Z,3.20
2022-09-06T16:51:15.108Z,3.85
2022-09-06T16:53:43.816Z,1.77
2022-09-06T16:56:11.572Z,1.10
2022-09-06T16:58:41.705Z,1.30
2022-09-06T17:01:09.489Z,1.33
2022-09-06T17:03:37.328Z,1.08
2022-09-06T17:06:06.799Z,1.58
2022-09-06T17:08:35.071Z,2.20
2022-09-06T17:11:02.871Z,2.92
2022-09-06T17:13:30.625Z,2.85
2022-09-06T17:16:19.985Z,1.70
2022-09-06T17:18:49.572Z,1.13
2022-09-06T17:21:18.495Z,1.10
2022-09-06T17:23:46.134Z,0.90
2022-09-06T17:26:13.774Z,2.45
2022-09-06T17:28:41.695Z,1.98
2022-09-06T17:31:09.692Z,0.70
2022-09-06T17:33:37.754Z,2.50
2022-09-06T17:36:10.391Z,1.92
2022-09-06T17:38:39.341Z,2.30
2022-09-06T17:41:07.350Z,1.25
2022-09-06T17:43:36.656Z,3.92
2022-09-06T17:46:04.832Z,2.55
2022-09-06T17:48:32.567Z,4.10
2022-09-06T17:51:06.214Z,2.88
2022-09-06T17:53:34.058Z,4.20
2022-09-06T17:56:05.584Z,3.22
2022-09-06T17:58:33.277Z,2.10
2022-09-06T18:01:02.813Z,3.97
2022-09-06T18:03:31.308Z,7.55
2022-09-06T18:06:03.178Z,5.82
2022-09-06T18:08:30.896Z,7.05
2022-09-06T18:10:58.532Z,9.10
2022-09-06T18:13:27.588Z,6.75
2022-09-06T18:15:55.187Z,7.57
2022-09-06T18:18:22.906Z,2.80
2022-09-06T18:20:51.333Z,2.45
2022-09-06T18:23:19.245Z,2.50
2022-09-06T18:25:56.367Z,2.60
2022-09-06T18:28:24.210Z,10.45
2022-09-06T18:30:54.088Z,6.68
2022-09-06T18:33:23.703Z,3.40
2022-09-06T18:35:51.547Z,4.80
2022-09-06T18:38:19.384Z,3.38
2022-09-06T18:40:53.472Z,3.53
2022-09-06T18:43:22.494Z,3.55
2022-09-06T18:45:50.774Z,2.85
2022-09-06T18:48:20.029Z,2.58
2022-09-06T18:50:47.755Z,3.60
2022-09-06T18:53:18.243Z,2.80
2022-09-06T18:55:48.112Z,5.82
2022-09-06T18:58:15.813Z,3.53
2022-09-06T19:00:43.606Z,2.65
2022-09-06T19:03:12.564Z,4.00
2022-09-06T19:05:41.826Z,5.95
2022-09-06T19:08:09.926Z,5.28
2022-09-06T19:10:37.821Z,4.28
2022-09-06T19:13:05.723Z,5.45
2022-09-06T19:15:33.722Z,4.20
2022-09-06T19:18:02.301Z,4.15
2022-09-06T19:20:30.167Z,4.30
2022-09-06T19:22:59.352Z,6.82
2022-09-06T19:25:29.220Z,4.45
2022-09-06T19:27:58.058Z,5.75
2022-09-06T19:30:25.850Z,5.78
2022-09-06T19:32:53.683Z,5.10
2022-09-06T19:35:21.707Z,4.80
2022-09-06T19:37:49.469Z,3.78
2022-09-06T19:40:18.894Z,3.88
2022-09-06T19:42:46.902Z,3.10
2022-09-06T19:45:16.703Z,4.47
2022-09-06T19:47:45.124Z,4.15
2022-09-06T19:50:14.346Z,3.90
2022-09-06T19:52:42.168Z,4.90
2022-09-06T19:55:10.360Z,4.25
2022-09-06T19:57:39.883Z,3.72
2022-09-06T20:00:08.640Z,3.25
2022-09-06T20:02:36.538Z,4.82
2022-09-06T20:05:04.772Z,3.78
2022-09-06T20:07:32.856Z,5.50
2022-09-06T20:10:00.682Z,4.57
2022-09-06T20:12:29.976Z,5.20
2022-09-06T20:14:59.514Z,3.38
2022-09-06T20:17:33.787Z,4.32
2022-09-06T20:20:02.269Z,3.10
2022-09-06T20:22:30.091Z,3.88
2022-09-06T20:24:57.817Z,4.13
2022-09-06T20:27:25.429Z,5.13
2022-09-06T20:29:53.155Z,6.28
2022-09-06T20:32:22.229Z,3.63
2022-09-06T20:34:49.983Z,4.25
2022-09-06T20:37:19.021Z,5.55
2022-09-06T20:39:46.781Z,3.33
2022-09-06T20:42:14.522Z,3.30
2022-09-06T20:44:42.214Z,4.50
2022-09-06T20:47:10.028Z,3.90
2022-09-06T20:49:39.283Z,4.07
2022-09-06T20:52:07.055Z,4.28
2022-09-06T20:54:34.776Z,3.42
2022-09-06T20:57:02.483Z,3.40
2022-09-06T20:59:30.216Z,5.63
2022-09-06T21:01:58.565Z,3.85
2022-09-06T21:04:27.015Z,4.05
2022-09-06T21:06:56.083Z,3.47
2022-09-06T21:09:23.815Z,3.78
2022-09-06T21:11:52.615Z,3.78
2022-09-06T21:14:20.515Z,4.00
2022-09-06T21:16:48.304Z,3.70
2022-09-06T21:19:16.629Z,3.85
2022-09-06T21:21:44.617Z,3.97
2022-09-06T21:24:13.771Z,3.20
2022-09-06T21:26:43.202Z,3.45
2022-09-06T21:29:11.480Z,3.55
2022-09-06T21:31:39.213Z,4.57
2022-09-06T21:34:15.565Z,4.05
2022-09-06T21:36:44.461Z,4.78
2022-09-06T21:39:13.708Z,4.40
2022-09-06T21:41:42.504Z,6.63
2022-09-06T21:44:10.425Z,3.80
2022-09-06T21:46:39.097Z,4.65
2022-09-06T21:49:08.207Z,3.83
2022-09-06T21:51:36.394Z,6.22
2022-09-06T21:54:05.414Z,4.55
2022-09-06T21:56:35.880Z,7.43
2022-09-06T21:59:03.640Z,4.50
2022-09-06T22:01:32.527Z,4.50
2022-09-06T22:04:00.973Z,4.15
2022-09-06T22:06:29.921Z,6.60
2022-09-06T22:08:58.282Z,3.63
2022-09-06T22:11:27.160Z,5.47
2022-09-06T22:13:58.659Z,4.40
2022-09-06T22:16:26.846Z,7.10
2022-09-06T22:18:54.516Z,4.15
2022-09-06T22:21:22.974Z,4.18
2022-09-06T22:23:51.389Z,4.18
2022-09-06T22:26:19.532Z,7.35
2022-09-06T22:28:47.241Z,4.10
2022-09-06T22:31:16.247Z,3.85
2022-09-06T22:33:44.588Z,4.18
2022-09-06T22:36:12.480Z,4.53
2022-09-06T22:38:40.003Z,3.65
2022-09-06T22:41:07.875Z,6.97
2022-09-06T22:43:35.432Z,4.65
2022-09-06T22:46:03.552Z,4.32
2022-09-06T22:48:32.722Z,4.47
2022-09-06T22:51:00.607Z,5.55
2022-09-06T22:53:28.631Z,4.47
2022-09-06T22:55:56.616Z,4.30
2022-09-06T22:58:25.135Z,4.03
2022-09-06T23:00:52.748Z,6.30
2022-09-06T23:03:20.605Z,4.20
2022-09-06T23:05:49.601Z,4.00
2022-09-06T23:08:17.249Z,4.93
2022-09-06T23:10:45.168Z,3.20
2022-09-06T23:13:12.712Z,4.55
2022-09-06T23:15:41.136Z,3.65
2022-09-06T23:18:08.768Z,4.85
2022-09-06T23:20:36.787Z,4.95
2022-09-06T23:23:06.020Z,3.75
2022-09-06T23:25:37.246Z,5.43
2022-09-06T23:28:04.766Z,5.68
2022-09-06T23:30:32.362Z,4.20
2022-09-06T23:32:59.937Z,3.95
2022-09-06T23:35:27.525Z,3.70
2022-09-06T23:37:55.098Z,5.20
2022-09-06T23:40:24.136Z,3.72
2022-09-06T23:42:51.682Z,3.53
2022-09-06T23:45:19.232Z,4.55
2022-09-06T23:47:46.763Z,4.53
2022-09-06T23:50:15.228Z,4.88
2022-09-06T23:52:42.798Z,5.13
2022-09-06T23:55:10.574Z,4.65
2022-09-06T23:57:39.539Z,4.10
